Time;durP1;ratioP1;P1;durP2;ratioP2;P2;SDS_P1;SDS_P2;PMS_P1;PMS_P2;Temp;Humidity;BMP_temperature;BMP_pressure;BME280_temperature;BME280_humidity;BME280_pressure;Samples;Min_cycle;Max_cycle;Signal;HPM_P1;HPM_P2
2022/05/02 00:01:45;;;;;;;8.00;3.47;;;;;;;;;;5042325;28;20386;-79
2022/05/02 00:04:11;;;;;;;7.80;4.13;;;;;;;;;;5046280;28;20230;-79
2022/05/02 00:06:37;;;;;;;7.78;4.00;;;;;;;;;;5047684;28;20074;-79
2022/05/02 00:09:03;;;;;;;8.63;4.63;;;;;;;;;;5050354;28;20084;-79
2022/05/02 00:11:29;;;;;;;8.43;4.13;;;;;;;;;;5047196;28;20029;-79
2022/05/02 00:13:55;;;;;;;9.27;4.47;;;;;;;;;;5050347;28;20037;-80
2022/05/02 00:16:21;;;;;;;7.88;4.43;;;;;;;;;;5047442;28;20060;-79
2022/05/02 00:18:47;;;;;;;8.00;4.97;;;;;;;;;;5044851;28;20558;-79
2022/05/02 00:21:13;;;;;;;10.23;5.22;;;;;;;;;;5045196;28;20378;-79
2022/05/02 00:23:39;;;;;;;7.50;4.45;;;;;;;;;;5046357;28;20035;-79
2022/05/02 00:26:05;;;;;;;9.00;4.45;;;;;;;;;;5047456;28;20025;-80
2022/05/02 00:28:31;;;;;;;8.50;5.00;;;;;;;;;;5045439;28;20039;-80
2022/05/02 00:30:57;;;;;;;10.77;4.65;;;;;;;;;;5045124;28;20037;-80
2022/05/02 00:33:24;;;;;;;8.40;4.40;;;;;;;;;;5042495;28;20028;-80
2022/05/02 00:35:50;;;;;;;7.75;3.90;;;;;;;;;;5048188;28;20025;-78
2022/05/02 00:38:15;;;;;;;11.15;5.97;;;;;;;;;;5050453;28;20032;-79
2022/05/02 00:40:41;;;;;;;11.95;4.28;;;;;;;;;;5053066;28;20033;-79
2022/05/02 00:43:07;;;;;;;10.48;5.30;;;;;;;;;;5060996;28;20048;-79
2022/05/02 00:45:37;;;;;;;10.02;4.85;;;8.20;99.90;;;;;;5056536;28;20067;-79
2022/05/02 00:48:04;;;;;;;9.60;4.80;;;;;;;;;;5059408;28;20048;-79
2022/05/02 00:50:33;;;;;;;11.20;5.35;;;;;;;;;;5064821;28;20013;-81
2022/05/02 00:52:59;;;;;;;6.80;3.40;;;;;;;;;;5048547;28;20039;-81
2022/05/02 00:55:25;;;;;;;9.52;4.53;;;;;;;;;;5045069;28;20021;-80
2022/05/02 00:57:51;;;;;;;9.63;5.15;;;;;;;;;;5044021;28;20116;-80
2022/05/02 01:00:17;;;;;;;8.02;4.70;;;;;;;;;;5034315;28;20037;-80
2022/05/02 01:02:43;;;;;;;8.80;5.05;;;;;;;;;;5038738;28;20045;-80
2022/05/02 01:05:09;;;;;;;7.82;4.65;;;;;;;;;;5045638;28;20021;-80
2022/05/02 01:07:35;;;;;;;9.00;5.25;;;;;;;;;;5046966;28;20025;-80
2022/05/02 01:10:01;;;;;;;12.63;5.35;;;;;;;;;;5042752;28;20039;-80
2022/05/02 01:12:27;;;;;;;8.57;4.95;;;;;;;;;;5042560;28;20061;-81
2022/05/02 01:14:54;;;;;;;11.07;5.20;;;;;;;;;;5042558;28;20017;-80
2022/05/02 01:17:20;;;;;;;11.18;5.68;;;;;;;;;;5037582;28;20461;-80
2022/05/02 01:19:46;;;;;;;7.95;4.95;;;;;;;;;;5042095;28;20064;-80
2022/05/02 01:22:12;;;;;;;8.98;4.88;;;;;;;;;;5045303;28;20035;-81
2022/05/02 01:24:42;;;;;;;8.02;4.00;;;;;;;;;;5043020;28;20135;-80
2022/05/02 01:27:09;;;;;;;10.50;5.15;;;;;;;;;;5043200;28;20108;-81
2022/05/02 01:29:36;;;;;;;10.02;5.55;;;;;;;;;;5040680;28;20056;-80
2022/05/02 01:32:06;;;;;;;9.60;5.13;;;;;;;;;;5045432;28;20036;-80
2022/05/02 01:34:32;;;;;;;7.22;4.72;;;;;;;;;;5034931;28;20210;-81
2022/05/02 01:36:58;;;;;;;9.82;6.38;;;;;;;;;;5044596;28;20200;-80
2022/05/02 01:39:24;;;;;;;7.97;4.53;;;;;;;;;;5043986;28;20285;-81
2022/05/02 01:41:50;;;;;;;10.15;5.57;;;;;;;;;;5037968;28;20256;-80
2022/05/02 01:44:16;;;;;;;8.65;4.60;;;;;;;;;;5047142;28;20028;-80
2022/05/02 01:46:42;;;;;;;10.85;5.32;;;;;;;;;;5041507;28;20044;-81
2022/05/02 01:49:08;;;;;;;9.32;4.93;;;;;;;;;;5043589;28;20125;-80
2022/05/02 01:51:34;;;;;;;7.07;4.13;;;;;;;;;;5044574;28;20123;-79
2022/05/02 01:54:00;;;;;;;12.60;4.85;;;;;;;;;;5044460;28;20033;-80
2022/05/02 01:56:26;;;;;;;6.57;4.13;;;;;;;;;;5046747;28;20066;-81
2022/05/02 01:58:52;;;;;;;6.72;4.30;;;;;;;;;;5031059;28;20029;-81
2022/05/02 02:01:18;;;;;;;9.48;4.28;;;;;;;;;;5040211;28;20021;-81
2022/05/02 02:03:44;;;;;;;8.15;4.28;;;;;;;;;;5040064;28;20029;-80
2022/05/02 02:06:10;;;;;;;9.38;4.28;;;;;;;;;;5044235;28;20116;-80
2022/05/02 02:08:36;;;;;;;6.47;4.30;;;;;;;;;;5042082;28;20112;-80
2022/05/02 02:11:07;;;;;;;8.57;3.85;;;6.60;99.90;;;;;;5051201;28;20020;-80
2022/05/02 02:13:34;;;;;;;10.32;5.45;;;;;;;;;;5051739;28;20021;-81
2022/05/02 02:16:06;;;;;;;10.15;4.53;;;;;;;;;;5051233;28;20025;-80
2022/05/02 02:18:32;;;;;;;8.85;5.13;;;;;;;;;;5056437;28;20044;-80
2022/05/02 02:20:58;;;;;;;8.57;4.28;;;;;;;;;;5048939;28;20044;-80
2022/05/02 02:23:24;;;;;;;7.95;4.43;;;;;;;;;;5051461;28;20399;-80
2022/05/02 02:25:50;;;;;;;5.78;3.33;;;;;;;;;;5043736;28;20033;-80
2022/05/02 02:28:17;;;;;;;7.53;3.63;;;;;;;;;;5048137;28;20052;-81
2022/05/02 02:30:43;;;;;;;9.15;5.55;;;;;;;;;;5048269;28;20017;-80
2022/05/02 02:33:09;;;;;;;9.60;5.88;;;;;;;;;;5048476;28;20487;-80
2022/05/02 02:35:35;;;;;;;13.80;6.85;;;;;;;;;;5046503;28;20083;-80
2022/05/02 02:38:02;;;;;;;7.47;4.80;;;;;;;;;;5045601;28;20112;-80
2022/05/02 02:40:28;;;;;;;10.10;4.70;;;;;;;;;;5041994;28;20055;-80
2022/05/02 02:42:54;;;;;;;8.35;4.05;;;;;;;;;;5047917;28;20051;-79
2022/05/02 02:45:20;;;;;;;9.05;4.90;;;;;;;;;;5038515;28;20037;-80
2022/05/02 02:47:46;;;;;;;6.50;3.53;;;;;;;;;;5044808;28;20029;-81
2022/05/02 02:50:12;;;;;;;7.13;4.22;;;;;;;;;;5042902;28;20043;-80
2022/05/02 02:52:38;;;;;;;9.98;4.53;;;;;;;;;;5050487;28;20017;-80
2022/05/02 02:55:05;;;;;;;8.25;3.67;;;;;;;;;;5047149;28;20036;-80
2022/05/02 02:57:30;;;;;;;8.18;4.55;;;;;;;;;;5043762;28;20032;-80
2022/05/02 02:59:56;;;;;;;9.48;4.63;;;;;;;;;;5044178;28;20480;-80
2022/05/02 03:02:22;;;;;;;8.07;4.03;;;;;;;;;;5042267;28;20036;-80
2022/05/02 03:07:33;;;;;;;13.57;5.82;;;;;;;;;;5044755;28;20048;-81
2022/05/02 03:09:59;;;;;;;8.35;4.55;;;;;;;;;;5047407;28;20485;-80
2022/05/02 03:12:26;;;;;;;11.27;4.72;;;;;;;;;;5045354;28;20613;-80
2022/05/02 03:14:52;;;;;;;8.88;4.60;;;;;;;;;;5043605;28;20148;-80
2022/05/02 03:17:18;;;;;;;7.88;4.60;;;;;;;;;;5041804;28;20113;-81
2022/05/02 03:19:44;;;;;;;7.05;4.53;;;;;;;;;;5036596;28;20045;-80
2022/05/02 03:22:10;;;;;;;15.98;5.63;;;;;;;;;;5045260;28;20123;-80
2022/05/02 03:24:35;;;;;;;11.40;6.20;;;;;;;;;;5047399;28;20152;-80
2022/05/02 03:27:01;;;;;;;10.55;5.70;;;;;;;;;;5047187;28;20083;-80
2022/05/02 03:29:27;;;;;;;10.95;6.90;;;;;;;;;;5046425;28;20031;-80
2022/05/02 03:31:53;;;;;;;7.15;4.57;;;;;;;;;;5039279;28;20026;-81
2022/05/02 03:34:19;;;;;;;8.23;5.25;;;;;;;;;;5043171;28;20473;-79
2022/05/02 03:36:45;;;;;;;13.68;5.82;;;;;;;;;;5046096;28;20041;-81
2022/05/02 03:39:11;;;;;;;9.18;5.30;;;;;;;;;;5047245;28;20052;-80
2022/05/02 03:41:37;;;;;;;10.38;4.90;;;;;;;;;;5046657;28;20115;-81
2022/05/02 03:44:03;;;;;;;8.93;5.65;;;;;;;;;;5041552;28;20029;-81
2022/05/02 03:46:29;;;;;;;9.20;4.93;;;;;;;;;;5042041;28;20495;-81
2022/05/02 03:48:55;;;;;;;11.15;5.80;;;;;;;;;;5043736;28;20037;-81
2022/05/02 03:51:21;;;;;;;6.97;4.45;;;;;;;;;;5035122;28;20028;-81
2022/05/02 03:53:47;;;;;;;8.70;5.28;;;;;;;;;;5042610;28;20469;-81
2022/05/02 03:56:13;;;;;;;8.88;4.75;;;;;;;;;;5044449;28;20084;-80
2022/05/02 03:58:39;;;;;;;9.07;5.30;;;;;;;;;;5046595;28;20037;-80
2022/05/02 04:01:06;;;;;;;9.52;5.40;;;;;;;;;;5045078;28;20041;-81
2022/05/02 04:03:32;;;;;;;11.20;5.53;;;;;;;;;;5043791;28;20032;-80
2022/05/02 04:05:58;;;;;;;9.45;5.10;;;;;;;;;;5049243;28;20112;-80
2022/05/02 04:08:23;;;;;;;10.50;4.70;;;;;;;;;;5046014;28;20599;-80
2022/05/02 04:10:49;;;;;;;9.13;5.20;;;;;;;;;;5053457;28;20043;-80
2022/05/02 04:13:15;;;;;;;8.18;4.65;;;;;;;;;;5047479;28;20048;-80
2022/05/02 04:15:41;;;;;;;12.85;5.50;;;;;;;;;;5046026;28;20025;-81
2022/05/02 04:18:08;;;;;;;8.43;4.72;;;;;;;;;;5040999;28;20493;-80
2022/05/02 04:20:34;;;;;;;9.05;4.95;;;;;;;;;;5050550;28;20060;-81
2022/05/02 04:23:00;;;;;;;8.93;5.30;;;;;;;;;;5052124;28;20587;-80
2022/05/02 04:25:26;;;;;;;9.18;4.72;;;;;;;;;;5040661;28;20035;-77
2022/05/02 04:27:52;;;;;;;7.90;4.78;;;;;;;;;;5038546;28;20017;-79
2022/05/02 04:30:18;;;;;;;9.10;5.22;;;;;;;;;;5042299;28;20420;-79
2022/05/02 04:32:44;;;;;;;9.00;5.15;;;;;;;;;;5041176;28;20491;-79
2022/05/02 04:35:10;;;;;;;8.60;5.05;;;;;;;;;;5048282;28;20032;-78
2022/05/02 04:37:36;;;;;;;8.73;5.50;;;;;;;;;;5050835;28;20289;-78
2022/05/02 04:40:03;;;;;;;11.48;5.55;;;;;;;;;;5040019;28;20382;-79
2022/05/02 04:42:29;;;;;;;11.90;6.85;;;;;;;;;;5032070;28;20049;-79
2022/05/02 04:44:55;;;;;;;12.10;6.63;;;;;;;;;;5049183;28;20033;-79
2022/05/02 04:47:21;;;;;;;12.00;6.15;;;;;;;;;;5042182;28;20025;-79
2022/05/02 04:49:47;;;;;;;9.93;5.30;;;;;;;;;;5038967;28;20043;-79
2022/05/02 04:52:12;;;;;;;11.60;5.80;;;;;;;;;;5043176;28;20071;-81
2022/05/02 04:54:38;;;;;;;11.52;6.05;;;;;;;;;;5047351;28;20028;-80
2022/05/02 04:57:04;;;;;;;12.10;6.28;;;7.30;99.90;;;;;;5048765;28;20025;-80
2022/05/02 04:59:30;;;;;;;12.13;6.80;;;;;;;;;;5044174;28;20484;-79
2022/05/02 05:01:58;;;;;;;12.93;6.13;;;7.90;99.90;;;;;;5041970;28;20056;-79
2022/05/02 05:04:24;;;;;;;14.77;6.82;;;;;;;;;;5052106;28;20178;-79
2022/05/02 05:06:49;;;;;;;12.80;6.75;;;;;;;;;;5050389;28;20060;-79
2022/05/02 05:09:15;;;;;;;10.20;6.25;;;;;;;;;;5047184;28;20041;-78
2022/05/02 05:11:48;;;;;;;9.70;4.60;;;;;;;;;;5040781;28;20085;-80
2022/05/02 05:16:58;;;;;;;10.98;5.80;;;;;;;;;;5054325;28;20076;-79
2022/05/02 05:19:24;;;;;;;13.77;6.55;;;;;;;;;;5050774;28;20052;-80
2022/05/02 05:21:50;;;;;;;9.57;5.85;;;;;;;;;;5052937;28;20021;-80
2022/05/02 05:24:35;;;;;;;10.98;6.55;;;;;;;;;;5038731;28;20150;-79
2022/05/02 05:27:03;;;;;;;9.23;5.78;;;;;;;;;;5052238;28;20092;-79
2022/05/02 05:29:38;;;;;;;9.65;5.68;;;;;;;;;;5057230;28;20013;-79
2022/05/02 05:32:05;;;;;;;8.85;5.18;;;;;;;;;;5052471;28;20040;-79
2022/05/02 05:34:41;;;;;;;7.78;5.05;;;;;;;;;;5054952;28;20021;-80
2022/05/02 05:37:16;;;;;;;14.10;6.80;;;;;;;;;;5053084;28;20040;-79
2022/05/02 05:39:48;;;;;;;13.15;6.50;;;;;;;;;;5046748;28;20036;-80
2022/05/02 05:42:20;;;;;;;12.80;6.38;;;;;;;;;;5044184;28;20025;-79
2022/05/02 05:44:49;;;;;;;7.50;5.03;;;;;;;;;;5047081;28;20129;-78
2022/05/02 05:47:15;;;;;;;10.43;5.57;;;;;;;;;;5047411;28;20071;-79
2022/05/02 05:50:11;;;;;;;8.60;4.50;;;;;;;;;;5052831;28;20032;-78
2022/05/02 05:52:54;;;;;;;10.38;5.78;;;;;;;;;;5042147;28;20060;-78
2022/05/02 05:55:20;;;;;;;;;;;;;;;;;;5056141;28;20503;-80
2022/05/02 05:58:10;;;;;;;11.00;4.70;;;10.00;99.90;;;;;;5062526;28;19916;-80
2022/05/02 06:00:41;;;;;;;7.38;4.15;;;;;;;;;;5049982;28;20029;-80
2022/05/02 06:03:16;;;;;;;9.48;4.93;;;;;;;;;;5055503;28;20013;-80
2022/05/02 06:05:43;;;;;;;11.68;7.32;;;;;;;;;;5063443;28;20048;-80
2022/05/02 06:08:22;;;;;;;8.38;5.30;;;;;;;;;;5059924;28;20017;-79
2022/05/02 06:10:52;;;;;;;11.32;6.10;;;;;;;;;;5053266;28;20028;-79
2022/05/02 06:13:19;;;;;;;6.57;3.88;;;;;;;;;;5056011;28;20032;-79
2022/05/02 06:18:40;;;;;;;6.80;4.53;;;;;;;;;;5053020;28;20090;-80
2022/05/02 06:21:07;;;;;;;7.20;3.88;;;11.30;99.90;;;;;;5052752;28;20033;-79
2022/05/02 06:23:40;;;;;;;5.82;3.60;;;11.60;99.90;;;;;;5057162;28;20031;-79
2022/05/02 06:26:06;;;;;;;3.88;2.80;;;;;;;;;;5059028;28;20041;-80
2022/05/02 06:28:44;;;;;;;4.82;3.22;;;12.60;99.90;;;;;;5057503;28;20093;-79
2022/05/02 06:31:18;;;;;;;10.82;5.43;;;;;;;;;;5051282;28;20056;-79
2022/05/02 06:33:48;;;;;;;8.13;3.90;;;;;;;;;;5059981;28;20613;-80
2022/05/02 06:36:20;;;;;;;6.20;3.65;;;;;;;;;;5057172;28;21020;-80
2022/05/02 06:39:05;;;;;;;8.38;4.90;;;;;;;;;;5063648;28;20067;-80
2022/05/02 06:41:50;;;;;;;6.63;4.50;;;;;;;;;;5054500;28;20040;-80
2022/05/02 06:44:42;;;;;;;8.18;3.78;;;11.90;99.90;;;;;;5055053;28;20071;-79
2022/05/02 06:47:24;;;;;;;13.77;5.13;;;;;;;;;;5049046;28;20032;-80
2022/05/02 06:49:53;;;;;;;11.82;5.20;;;12.10;99.90;;;;;;5055560;28;20028;-80
2022/05/02 06:52:24;;;;;;;6.95;4.60;;;13.20;99.90;;;;;;5054218;28;20489;-80
2022/05/02 06:55:09;;;;;;;6.45;4.43;;;;;;;;;;5057722;28;20029;-80
2022/05/02 06:57:55;;;;;;;7.32;3.55;;;14.70;99.90;;;;;;5050657;28;20021;-80
2022/05/02 07:00:21;;;;;;;6.45;3.42;;;;;;;;;;5057436;28;20040;-81
2022/05/02 07:03:13;;;;;;;6.10;3.92;;;14.90;99.90;;;;;;5050883;28;20371;-80
2022/05/02 07:05:58;;;;;;;8.88;4.28;;;;;;;;;;5055838;28;20029;-80
2022/05/02 07:08:28;;;;;;;6.03;3.85;;;;;;;;;;5057675;28;20040;-80
2022/05/02 07:11:00;;;;;;;6.57;4.05;;;;;;;;;;5045165;28;20033;-79
2022/05/02 07:13:34;;;;;;;6.82;3.92;;;14.60;99.90;;;;;;5054330;28;20087;-80
2022/05/02 07:16:00;;;;;;;11.05;4.00;;;;;;;;;;5052913;28;20044;-79
2022/05/02 07:18:40;;;;;;;9.50;4.70;;;15.20;99.90;;;;;;5055050;28;20041;-79
2022/05/02 07:21:19;;;;;;;11.50;4.07;;;;;;;;;;5057523;28;20576;-79
2022/05/02 07:23:48;;;;;;;7.22;4.70;;;;;;;;;;5054993;28;20028;-79
2022/05/02 07:26:17;;;;;;;9.65;3.65;;;16.50;99.90;;;;;;5045056;28;20768;-79
2022/05/02 07:28:46;;;;;;;4.05;3.05;;;;;;;;;;5053549;28;20058;-80
2022/05/02 07:31:13;;;;;;;10.30;4.20;;;;;;;;;;5049276;28;20021;-79
2022/05/02 07:33:40;;;;;;;10.25;4.97;;;;;;;;;;5058972;28;20131;-79
2022/05/02 07:36:06;;;;;;;12.95;6.75;;;;;;;;;;5060308;28;20108;-79
2022/05/02 07:38:33;;;;;;;14.23;6.22;;;;;;;;;;5050114;28;20036;-80
2022/05/02 07:43:52;;;;;;;10.43;4.78;;;;;;;;;;5053901;28;20104;-79
2022/05/02 07:46:23;;;;;;;8.50;5.18;;;;;;;;;;5053272;28;20097;-79
2022/05/02 07:48:50;;;;;;;12.93;6.32;;;;;;;;;;5056724;28;20025;-79
2022/05/02 07:51:16;;;;;;;28.17;9.27;;;;;;;;;;5049810;28;20048;-80
2022/05/02 07:53:44;;;;;;;10.35;5.32;;;;;;;;;;5053047;28;20028;-80
2022/05/02 07:56:11;;;;;;;9.82;4.70;;;;;;;;;;5054543;28;20381;-79
2022/05/02 07:58:41;;;;;;;7.25;4.53;;;;;;;;;;5051222;28;20029;-79
2022/05/02 08:01:07;;;;;;;8.90;5.30;;;;;;;;;;5055341;28;20017;-80
2022/05/02 08:03:33;;;;;;;12.27;7.28;;;;;;;;;;5050404;28;20491;-80
2022/05/02 08:06:10;;;;;;;8.93;5.15;;;;;;;;;;5052715;28;20033;-80
2022/05/02 08:08:41;;;;;;;8.27;5.05;;;;;;;;;;5050567;28;20029;-80
2022/05/02 08:11:07;;;;;;;8.88;5.00;;;;;;;;;;5055432;28;20045;-80
2022/05/02 08:13:52;;;;;;;8.98;4.05;;;;;;;;;;5044742;28;20037;-80
2022/05/02 08:16:25;;;;;;;7.30;3.92;;;;;;;;;;5054113;28;20118;-80
2022/05/02 08:18:50;;;;;;;9.20;5.07;;;;;;;;;;5052377;28;20047;-79
2022/05/02 08:21:18;;;;;;;13.65;6.30;;;;;;;;;;5051602;28;20038;-80
2022/05/02 08:27:15;;;;;;;7.28;4.47;;;;;;;;;;5055091;28;20043;-80
2022/05/02 08:29:40;;;;;;;12.93;6.13;;;;;;;;;;5055744;28;20063;-79
2022/05/02 08:32:10;;;;;;;8.45;4.45;;;;;;;;;;5047864;28;20036;-80
2022/05/02 08:34:38;;;;;;;8.05;4.55;;;20.20;98.30;;;;;;5050911;28;20043;-79
2022/05/02 08:37:16;;;;;;;7.68;4.15;;;22.40;92.40;;;;;;5049590;28;20027;-79
2022/05/02 08:39:51;;;;;;;6.78;4.20;;;;;;;;;;5054869;28;20043;-80
2022/05/02 08:42:34;;;;;;;7.03;4.88;;;;;;;;;;5045100;28;20112;-79
2022/05/02 08:45:00;;;;;;;6.28;3.67;;;;;;;;;;5045057;28;20548;-80
2022/05/02 08:47:44;;;;;;;7.07;4.22;;;27.00;88.80;;;;;;5049934;28;20068;-80
2022/05/02 08:50:29;;;;;;;7.68;4.38;;;28.50;61.10;;;;;;5045454;28;20089;-80
2022/05/02 08:53:13;;;;;;;7.00;4.25;;;;;;;;;;5047133;28;20063;-80
2022/05/02 08:55:58;;;;;;;7.40;4.22;;;;;;;;;;5051233;28;20033;-80
2022/05/02 08:58:55;;;;;;;6.18;3.85;;;29.10;52.40;;;;;;5051630;28;20170;-79
2022/05/02 09:01:58;;;;;;;7.63;3.75;;;30.50;53.20;;;;;;5052237;28;20465;-79
2022/05/02 09:04:44;;;;;;;6.07;3.50;;;31.10;50.50;;;;;;5052954;28;20037;-80
2022/05/02 09:07:17;;;;;;;7.25;4.07;;;;;;;;;;5056494;28;20029;-79
2022/05/02 09:09:43;;;;;;;6.60;3.40;;;;;;;;;;5053883;28;20653;-81
2022/05/02 09:12:21;;;;;;;5.65;3.50;;;30.20;50.10;;;;;;5046815;28;20029;-80
2022/05/02 09:14:50;;;;;;;7.15;3.72;;;;;;;;;;5052304;28;20055;-80
2022/05/02 09:17:16;;;;;;;9.20;3.92;;;;;;;;;;5041748;28;20053;-81
2022/05/02 09:19:45;;;;;;;8.23;3.30;;;;;;;;;;5050332;28;20520;-81
2022/05/02 09:22:30;;;;;;;5.00;3.15;;;;;;;;;;5052835;28;20037;-80
2022/05/02 09:25:01;;;;;;;6.55;2.90;;;;;;;;;;5050359;28;20025;-80
2022/05/02 09:28:14;;;;;;;7.47;4.38;;;24.80;58.80;;;;;;5044713;28;20030;-78
2022/05/02 09:30:40;;;;;;;6.82;3.97;;;;;;;;;;5028931;28;20673;-80
2022/05/02 09:33:25;;;;;;;6.10;3.90;;;;;;;;;;5054131;28;20274;-80
2022/05/02 09:35:54;;;;;;;6.65;3.53;;;;;;;;;;5053020;28;20459;-79
2022/05/02 09:38:25;;;;;;;6.82;4.10;;;;;;;;;;5055076;28;20036;-80
2022/05/02 09:40:55;;;;;;;6.57;3.88;;;;;;;;;;5051612;28;20025;-79
2022/05/02 09:49:56;;;;;;;6.57;4.20;;;;;;;;;;5047918;28;20035;-80
2022/05/02 09:52:42;;;;;;;7.78;4.10;;;;;;;;;;5050575;28;20279;-80
2022/05/02 09:58:11;;;;;;;5.90;3.60;;;;;;;;;;5053247;28;20079;-78
2022/05/02 10:03:39;;;;;;;7.80;4.22;;;;;;;;;;5053108;28;20047;-80
2022/05/02 10:06:10;;;;;;;5.97;3.80;;;;;;;;;;5055387;28;20025;-79
2022/05/02 10:08:48;;;;;;;8.60;4.30;;;;;;;;;;5053081;28;20055;-80
2022/05/02 10:11:51;;;;;;;5.50;3.38;;;21.40;73.90;;;;;;5052287;28;20025;-80
2022/05/02 10:14:20;;;;;;;9.70;3.70;;;;;;;;;;5046375;28;20029;-80
2022/05/02 10:16:57;;;;;;;7.20;4.10;;;;;;;;;;5049715;28;20041;-80
2022/05/02 10:19:36;;;;;;;4.65;3.70;;;;;;;;;;5055629;28;20125;-80
2022/05/02 10:22:22;;;;;;;6.32;3.60;;;;;;;;;;5055804;28;20032;-80
2022/05/02 10:24:50;;;;;;;7.60;3.60;;;;;;;;;;5054762;28;20044;-80
2022/05/02 10:27:35;;;;;;;7.85;4.15;;;;;;;;;;5053278;28;20175;-79
2022/05/02 10:30:11;;;;;;;5.88;3.72;;;22.20;67.60;;;;;;5047936;28;20101;-80
2022/05/02 10:32:49;;;;;;;14.75;8.27;;;;;;;;;;5045463;28;20056;-79
2022/05/02 10:35:17;;;;;;;5.95;3.13;;;;;;;;;;5047504;28;20106;-80
2022/05/02 10:37:50;;;;;;;4.93;3.05;;;;;;;;;;5051291;28;20021;-80
2022/05/02 10:40:17;;;;;;;4.43;2.47;;;;;;;;;;5058473;28;20059;-80
2022/05/02 10:42:49;;;;;;;6.65;3.42;;;;;;;;;;5056640;28;20041;-80
2022/05/02 10:45:15;;;;;;;5.97;3.40;;;;;;;;;;5051016;28;20079;-80
2022/05/02 10:47:51;;;;;;;6.88;3.15;;;21.70;67.10;;;;;;5054793;28;20052;-80
2022/05/02 10:50:20;;;;;;;4.47;3.15;;;21.90;69.30;;;;;;5056955;28;20040;-79
2022/05/02 10:52:46;;;;;;;5.18;2.85;;;;;;;;;;5050553;28;20053;-79
2022/05/02 10:55:37;;;;;;;6.65;3.75;;;;;;;;;;5057964;28;20037;-80
2022/05/02 10:58:04;;;;;;;5.75;3.50;;;;;;;;;;5054584;28;20060;-80
2022/05/02 11:00:31;;;;;;;7.60;4.18;;;;;;;;;;5054262;28;20326;-80
2022/05/02 11:03:03;;;;;;;7.20;3.45;;;;;;;;;;5040929;28;20566;-80
2022/05/02 11:05:34;;;;;;;7.95;4.40;;;;;;;;;;5047932;28;20043;-79
2022/05/02 11:08:07;;;;;;;5.95;3.72;;;;;;;;;;5048647;28;20033;-79
2022/05/02 11:10:43;;;;;;;7.88;4.32;;;;;;;;;;5043874;28;20729;-81
2022/05/02 11:13:20;;;;;;;7.03;4.22;;;;;;;;;;5049085;28;20063;-81
2022/05/02 11:15:55;;;;;;;9.73;4.60;;;;;;;;;;5047406;28;20110;-80
2022/05/02 11:21:36;;;;;;;5.20;3.38;;;;;;;;;;5050531;28;20052;-81
2022/05/02 11:24:05;;;;;;;5.43;3.17;;;;;;;;;;5048676;28;20025;-82
2022/05/02 11:26:45;;;;;;;5.65;3.17;;;;;;;;;;5057837;28;20048;-81
2022/05/02 11:29:49;;;;;;;5.78;3.40;;;22.90;68.80;;;;;;5056539;28;20088;-82
2022/05/02 11:32:15;;;;;;;;;;;;;;;;;;5055290;28;20041;-81
2022/05/02 11:34:57;;;;;;;9.27;5.25;;;;;;;;;;5058840;28;19919;-81
2022/05/02 11:37:43;;;;;;;9.45;4.43;;;;;;;;;;5063691;28;20032;-81
2022/05/02 11:40:13;;;;;;;7.53;4.10;;;;;;;;;;5052710;28;20044;-83
2022/05/02 11:42:43;;;;;;;7.00;4.00;;;;;;;;;;5048888;28;20017;-81
2022/05/02 11:45:10;;;;;;;6.90;4.35;;;;;;;;;;5047128;28;20071;-81
2022/05/02 11:47:44;;;;;;;7.07;4.85;;;;;;;;;;5050370;28;20029;-79
2022/05/02 11:50:10;;;;;;;5.95;3.92;;;;;;;;;;5049978;28;20646;-81
2022/05/02 11:52:38;;;;;;;11.38;5.65;;;21.60;72.80;;;;;;5049822;28;20036;-81
2022/05/02 11:55:08;;;;;;;7.38;4.10;;;;;;;;;;5047974;28;20088;-80
2022/05/02 11:57:39;;;;;;;8.50;3.80;;;;;;;;;;5056155;28;20025;-85
2022/05/02 12:00:15;;;;;;;13.45;5.68;;;;;;;;;;5055812;28;20035;-86
2022/05/02 12:02:45;;;;;;;5.97;3.15;;;;;;;;;;5045053;28;20074;-84
2022/05/02 12:05:25;;;;;;;8.75;4.72;;;;;;;;;;5058626;28;20032;-84
2022/05/02 12:07:55;;;;;;;7.35;3.35;;;;;;;;;;5052195;28;20032;-87
2022/05/02 12:10:22;;;;;;;6.32;3.78;;;;;;;;;;5049791;28;20033;-83
2022/05/02 12:12:49;;;;;;;7.10;4.10;;;;;;;;;;5047167;28;20061;-83
2022/05/02 12:15:16;;;;;;;4.70;2.45;;;;;;;;;;5038187;28;20025;-80
2022/05/02 12:18:09;;;;;;;4.55;2.75;;;;;;;;;;5044382;28;20104;-80
2022/05/02 12:20:39;;;;;;;6.22;3.85;;;;;;;;;;5038415;28;20128;-82
2022/05/02 12:23:07;;;;;;;8.18;4.25;;;;;;;;;;5047851;28;20397;-83
2022/05/02 12:25:34;;;;;;;8.88;4.38;;;;;;;;;;5041527;28;20394;-82
2022/05/02 12:28:03;;;;;;;5.72;3.47;;;;;;;;;;5043535;28;20028;-82
2022/05/02 12:30:30;;;;;;;8.10;4.28;;;;;;;;;;5046798;28;20075;-80
2022/05/02 12:33:00;;;;;;;7.00;3.30;;;;;;;;;;5048003;28;20025;-83
2022/05/02 12:35:27;;;;;;;6.15;3.05;;;;;;;;;;5042935;28;20377;-81
2022/05/02 12:37:53;;;;;;;6.10;3.33;;;;;;;;;;5053408;28;20033;-82
2022/05/02 12:40:23;;;;;;;7.15;4.18;;;;;;;;;;5049059;28;20071;-83
2022/05/02 12:42:55;;;;;;;5.47;3.35;;;;;;;;;;5048266;28;20040;-84
2022/05/02 12:45:23;;;;;;;5.45;3.00;;;;;;;;;;5047613;28;22307;-81
2022/05/02 12:47:56;;;;;;;9.63;3.38;;;;;;;;;;5043597;28;20029;-83
2022/05/02 12:50:25;;;;;;;6.05;3.65;;;;;;;;;;5045281;28;20040;-82
2022/05/02 12:52:52;;;;;;;6.13;3.40;;;;;;;;;;5048608;28;20435;-82
2022/05/02 12:55:19;;;;;;;5.38;3.15;;;;;;;;;;5043014;28;20022;-81
2022/05/02 13:00:30;;;;;;;4.70;3.55;;;;;;;;;;5041409;28;22774;-81
2022/05/02 13:02:59;;;;;;;4.88;3.45;;;;;;;;;;5035470;28;20037;-84
2022/05/02 13:05:29;;;;;;;6.05;3.35;;;;;;;;;;5045944;28;20044;-81
2022/05/02 13:07:56;;;;;;;4.80;3.25;;;;;;;;;;5046444;28;20028;-82
2022/05/02 13:10:26;;;;;;;7.97;3.58;;;;;;;;;;5044834;28;20030;-81
2022/05/02 13:12:55;;;;;;;7.57;3.72;;;;;;;;;;5041125;28;20044;-82
2022/05/02 13:15:22;;;;;;;5.30;3.40;;;;;;;;;;5034589;28;20029;-84
2022/05/02 13:17:49;;;;;;;7.97;3.83;;;;;;;;;;5043542;28;20052;-82
2022/05/02 13:20:16;;;;;;;9.27;4.70;;;;;;;;;;5047033;28;20044;-82
2022/05/02 13:22:58;;;;;;;9.15;4.65;;;;;;;;;;5046618;28;20025;-82
2022/05/02 13:25:43;;;;;;;5.82;3.22;;;;;;;;;;5042310;28;20926;-80
2022/05/02 13:28:11;;;;;;;5.07;2.65;;;;;;;;;;5041782;28;20051;-82
2022/05/02 13:30:37;;;;;;;5.50;3.15;;;;;;;;;;5035240;28;20060;-81
2022/05/02 13:33:06;;;;;;;5.47;3.15;;;;;;;;;;5042958;28;20040;-81
2022/05/02 13:35:35;;;;;;;6.90;3.58;;;;;;;;;;5037542;28;20037;-80
2022/05/02 13:38:11;;;;;;;5.90;2.95;;;;;;;;;;5045720;28;20037;-82
2022/05/02 13:40:56;;;;;;;5.97;2.88;;;;;;;;;;5038215;28;20048;-84
2022/05/02 13:43:46;;;;;;;5.57;3.25;;;;;;;;;;5044542;28;20056;-82
2022/05/02 13:46:22;;;;;;;9.23;5.50;;;;;;;;;;5032913;28;20490;-84
2022/05/02 13:48:56;;;;;;;3.78;2.55;;;;;;;;;;5049050;28;20029;-84
2022/05/02 13:51:32;;;;;;;7.18;3.20;;;;;;;;;;5045696;28;20029;-82
2022/05/02 13:54:07;;;;;;;5.35;2.63;;;;;;;;;;5045395;28;20214;-82
2022/05/02 13:56:53;;;;;;;4.78;3.15;;;;;;;;;;5043396;28;20041;-81
2022/05/02 13:59:23;;;;;;;5.70;3.42;;;;;;;;;;5042261;28;20065;-80
2022/05/02 14:02:17;;;;;;;3.80;2.53;;;22.10;66.80;;;;;;5042485;28;20039;-81
2022/05/02 14:04:51;;;;;;;4.35;2.65;;;;;;;;;;5053692;28;20025;-83
2022/05/02 14:07:18;;;;;;;2.92;2.05;;;;;;;;;;5050531;28;20021;-82
2022/05/02 14:09:44;;;;;;;4.53;2.58;;;;;;;;;;5045322;28;20056;-81
2022/05/02 14:12:28;;;;;;;5.22;2.47;;;;;;;;;;5044229;28;20036;-81
2022/05/02 14:14:56;;;;;;;5.10;3.17;;;;;;;;;;5042839;28;20105;-81
2022/05/02 14:17:28;;;;;;;5.40;2.40;;;;;;;;;;5043847;28;20102;-83
2022/05/02 14:20:14;;;;;;;4.67;2.63;;;;;;;;;;5038801;28;20397;-80
2022/05/02 14:22:42;;;;;;;5.80;3.13;;;;;;;;;;5036362;28;20550;-82
2022/05/02 14:25:10;;;;;;;7.00;3.72;;;;;;;;;;5039974;28;20029;-81
2022/05/02 14:27:37;;;;;;;5.00;3.00;;;;;;;;;;5037208;28;20033;-81
2022/05/02 14:30:05;;;;;;;4.68;2.60;;;;;;;;;;5053672;28;20505;-81
2022/05/02 14:32:44;;;;;;;4.68;3.25;;;21.50;73.00;;;;;;5047685;28;20070;-81
2022/05/02 14:35:25;;;;;;;6.43;2.97;;;;;;;;;;5051962;28;20051;-83
2022/05/02 14:37:52;;;;;;;4.80;2.55;;;;;;;;;;5049452;28;20061;-83
2022/05/02 14:40:18;;;;;;;3.70;2.63;;;;;;;;;;5044935;28;20077;-82
2022/05/02 14:42:44;;;;;;;2.80;1.95;;;;;;;;;;5043747;28;20036;-83
2022/05/02 14:45:13;;;;;;;6.07;3.00;;;;;;;;;;5042907;28;20117;-83
2022/05/02 14:47:41;;;;;;;6.95;2.83;;;;;;;;;;5048589;28;20060;-83
2022/05/02 14:50:08;;;;;;;3.95;2.42;;;;;;;;;;5053130;28;20037;-82
2022/05/02 14:52:36;;;;;;;5.68;2.70;;;;;;;;;;5052727;28;20029;-83
2022/05/02 14:55:03;;;;;;;15.77;2.65;;;;;;;;;;5049362;28;20032;-81
2022/05/02 14:57:30;;;;;;;7.25;3.45;;;;;;;;;;5050471;28;20048;-82
2022/05/02 14:59:59;;;;;;;4.38;2.47;;;;;;;;;;5051849;28;20036;-81
2022/05/02 15:02:26;;;;;;;5.32;2.55;;;;;;;;;;5054936;28;20036;-81
2022/05/02 15:04:53;;;;;;;4.03;2.95;;;;;;;;;;5054229;28;20029;-82
2022/05/02 15:07:21;;;;;;;6.53;2.83;;;;;;;;;;5057855;28;20045;-80
2022/05/02 15:10:13;;;;;;;4.18;2.60;;;;;;;;;;5053967;28;20041;-82
2022/05/02 15:12:41;;;;;;;8.90;3.47;;;;;;;;;;5037974;28;20120;-80
2022/05/02 15:15:36;;;;;;;5.47;2.78;;;21.20;67.60;;;;;;5052658;28;20042;-82
2022/05/02 15:18:30;;;;;;;8.25;2.45;;;20.90;69.90;;;;;;5050450;28;20041;-81
2022/05/02 15:21:00;;;;;;;;;;;20.90;77.70;;;;;;5055004;28;20090;-81
2022/05/02 15:23:26;;;;;;;5.25;2.20;;;;;;;;;;5055882;28;19955;-80